Time;durP1;ratioP1;P1;durP2;ratioP2;P2;SDS_P1;SDS_P2;PMS_P1;PMS_P2;Temp;Humidity;BMP_temperature;BMP_pressure;BME280_temperature;BME280_humidity;BME280_pressure;Samples;Min_cycle;Max_cycle;Signal;HPM_P1;HPM_P2
2022/03/29 00:05:06;;;;;;;32.00;22.10;;;7.00;99.90;;;;;;12445022;28;20904;-80
2022/03/29 00:11:08;;;;;;;29.38;20.35;;;7.00;99.90;;;;;;12433341;28;20135;-81
2022/03/29 00:17:11;;;;;;;28.15;19.77;;;7.00;99.90;;;;;;12440512;28;20034;-80
2022/03/29 00:23:13;;;;;;;27.00;18.25;;;7.00;99.90;;;;;;12437314;28;20494;-80
2022/03/29 00:29:15;;;;;;;28.05;18.92;;;7.00;99.90;;;;;;12436046;28;20049;-81
2022/03/29 00:35:17;;;;;;;30.33;19.40;;;7.00;99.90;;;;;;12443182;28;20058;-81
2022/03/29 00:41:19;;;;;;;26.05;18.33;;;7.00;99.90;;;;;;12436307;28;20094;-81
2022/03/29 00:47:20;;;;;;;26.33;17.40;;;6.90;99.90;;;;;;12433338;28;20064;-80
2022/03/29 00:53:23;;;;;;;27.65;17.92;;;6.80;99.90;;;;;;12433404;28;20045;-80
2022/03/29 00:59:26;;;;;;;26.23;17.35;;;6.80;99.90;;;;;;12453037;28;20081;-80
2022/03/29 01:05:28;;;;;;;29.45;18.05;;;6.80;99.90;;;;;;12432154;28;20045;-80
2022/03/29 01:11:32;;;;;;;26.17;17.88;;;6.80;99.90;;;;;;12436530;28;20095;-82
2022/03/29 01:17:43;;;;;;;27.63;18.00;;;6.70;99.90;;;;;;12436547;28;20137;-81
2022/03/29 01:23:47;;;;;;;26.02;17.60;;;6.60;99.90;;;;;;12432263;28;20215;-80
2022/03/29 01:29:50;;;;;;;28.48;18.85;;;6.60;99.90;;;;;;12433730;28;20049;-81
2022/03/29 01:35:52;;;;;;;27.83;17.40;;;6.40;99.90;;;;;;12446889;28;20891;-81
2022/03/29 01:41:54;;;;;;;26.25;17.83;;;6.40;99.90;;;;;;12440188;28;20559;-80
2022/03/29 01:47:57;;;;;;;30.38;17.73;;;6.40;99.90;;;;;;12440911;28;20469;-82
2022/03/29 01:54:02;;;;;;;27.50;18.20;;;6.40;99.90;;;;;;12430529;28;20151;-81
2022/03/29 02:06:27;;;;;;;30.88;20.38;;;6.50;99.90;;;;;;12431193;28;20054;-80
2022/03/29 02:12:30;;;;;;;32.00;20.40;;;6.40;99.90;;;;;;12434628;28;20050;-81
2022/03/29 02:18:32;;;;;;;32.15;20.02;;;6.30;99.90;;;;;;12430133;28;20058;-80
2022/03/29 02:24:34;;;;;;;31.23;19.73;;;6.40;99.90;;;;;;12432413;28;20046;-81
2022/03/29 02:30:36;;;;;;;31.08;20.13;;;6.50;99.90;;;;;;12429828;28;20464;-80
2022/03/29 02:36:38;;;;;;;30.27;20.00;;;6.60;99.90;;;;;;12429548;28;20465;-82
2022/03/29 02:42:55;;;;;;;32.05;19.42;;;6.50;99.90;;;;;;12435239;28;20041;-80
2022/03/29 02:48:57;;;;;;;31.83;19.23;;;6.40;99.90;;;;;;12438760;28;20096;-80
2022/03/29 02:54:59;;;;;;;31.70;19.38;;;6.40;99.90;;;;;;12461334;28;20061;-80
2022/03/29 03:01:00;;;;;;;31.02;18.05;;;6.50;99.90;;;;;;12439966;28;20057;-80
2022/03/29 03:07:03;;;;;;;26.23;16.48;;;6.50;99.90;;;;;;12437263;28;20696;-82
2022/03/29 03:13:05;;;;;;;28.38;17.73;;;6.60;99.90;;;;;;12432356;28;20065;-80
2022/03/29 03:19:06;;;;;;;29.80;17.77;;;6.40;99.90;;;;;;12439697;28;20050;-81
2022/03/29 03:25:12;;;;;;;28.50;18.50;;;6.30;99.90;;;;;;12429896;28;20250;-82
2022/03/29 03:31:14;;;;;;;31.63;19.65;;;6.30;99.90;;;;;;12429567;28;20445;-82
2022/03/29 03:37:16;;;;;;;35.78;20.23;;;6.40;99.90;;;;;;12444771;28;20052;-80
2022/03/29 03:43:18;;;;;;;31.48;19.92;;;6.30;99.90;;;;;;12442457;28;20556;-81
2022/03/29 03:49:20;;;;;;;34.85;19.67;;;6.50;99.90;;;;;;12441007;28;20060;-80
2022/03/29 03:55:22;;;;;;;35.50;20.52;;;6.40;99.90;;;;;;12441135;28;20502;-81
2022/03/29 04:01:24;;;;;;;36.72;20.77;;;6.50;99.90;;;;;;12436044;28;20084;-81
2022/03/29 04:07:26;;;;;;;33.50;20.10;;;6.40;99.90;;;;;;12437727;28;20056;-82
2022/03/29 04:13:28;;;;;;;31.60;18.67;;;6.40;99.90;;;;;;12438229;28;20046;-81
2022/03/29 04:19:30;;;;;;;34.72;20.75;;;6.40;99.90;;;;;;12439388;28;20080;-80
2022/03/29 04:25:32;;;;;;;35.33;20.77;;;6.30;99.90;;;;;;12439038;28;20061;-82
2022/03/29 04:31:34;;;;;;;38.72;22.02;;;6.20;99.90;;;;;;12456803;28;20045;-81
2022/03/29 04:37:35;;;;;;;37.22;21.98;;;6.10;99.90;;;;;;12453069;28;20061;-81
2022/03/29 04:43:37;;;;;;;36.67;21.23;;;6.20;99.90;;;;;;12436958;28;20077;-80
2022/03/29 04:49:39;;;;;;;35.75;21.80;;;6.20;99.90;;;;;;12436021;28;20107;-79
2022/03/29 04:55:41;;;;;;;41.95;22.83;;;6.20;99.90;;;;;;12437448;28;20091;-79
2022/03/29 05:01:43;;;;;;;40.88;23.40;;;6.20;99.90;;;;;;12435209;28;20060;-80
2022/03/29 05:07:46;;;;;;;39.80;21.90;;;6.20;99.90;;;;;;12437133;28;20069;-80
2022/03/29 05:13:49;;;;;;;40.70;23.23;;;6.10;99.90;;;;;;12432128;28;20791;-81
2022/03/29 05:19:51;;;;;;;37.70;21.63;;;6.20;99.90;;;;;;12443051;28;20046;-81
2022/03/29 05:25:53;;;;;;;35.28;21.52;;;6.30;99.90;;;;;;12434380;28;20489;-81
2022/03/29 05:31:56;;;;;;;36.25;21.58;;;6.20;99.90;;;;;;12433978;28;20128;-81
2022/03/29 05:37:59;;;;;;;36.95;21.85;;;6.30;99.90;;;;;;12437472;28;20054;-81
2022/03/29 05:44:00;;;;;;;40.10;22.83;;;6.20;99.90;;;;;;12458403;28;20140;-82
2022/03/29 05:50:03;;;;;;;42.65;22.42;;;6.10;99.90;;;;;;12443882;28;20091;-80
2022/03/29 05:56:04;;;;;;;40.13;22.33;;;6.00;99.90;;;;;;12433937;28;20057;-79
2022/03/29 06:02:07;;;;;;;41.13;23.08;;;6.10;99.90;;;;;;12426995;28;20041;-80
2022/03/29 06:08:10;;;;;;;43.58;23.58;;;6.00;99.90;;;;;;12430457;28;20454;-82
2022/03/29 06:14:11;;;;;;;42.35;23.05;;;6.10;99.90;;;;;;12435892;28;20482;-81
2022/03/29 06:20:13;;;;;;;43.83;21.92;;;6.20;99.90;;;;;;12426314;28;20054;-82
2022/03/29 06:26:15;;;;;;;38.72;21.85;;;6.30;99.90;;;;;;12430131;28;20476;-80
2022/03/29 06:32:18;;;;;;;40.40;21.70;;;6.40;99.90;;;;;;12427617;28;20106;-80
2022/03/29 06:38:21;;;;;;;40.90;20.58;;;6.30;99.90;;;;;;12425218;28;20084;-80
2022/03/29 06:44:23;;;;;;;35.50;20.35;;;6.30;99.90;;;;;;12429760;28;20119;-81
2022/03/29 06:50:25;;;;;;;35.33;20.05;;;6.20;99.90;;;;;;12423825;28;20053;-80
2022/03/29 06:56:28;;;;;;;32.17;19.30;;;6.40;99.90;;;;;;12429806;28;20055;-81
2022/03/29 07:02:30;;;;;;;36.17;20.17;;;6.40;99.90;;;;;;12442963;28;20046;-81
2022/03/29 07:08:33;;;;;;;32.80;19.58;;;6.60;99.90;;;;;;12435524;28;20069;-79
2022/03/29 07:14:34;;;;;;;32.72;18.48;;;6.60;99.90;;;;;;12437972;28;20046;-82
2022/03/29 07:20:36;;;;;;;36.83;19.58;;;6.70;99.90;;;;;;12435505;28;20061;-80
2022/03/29 07:26:40;;;;;;;29.50;19.23;;;6.60;99.90;;;;;;12443311;28;20133;-81
2022/03/29 07:32:44;;;;;;;33.40;17.13;;;6.70;99.90;;;;;;12446216;28;20555;-80
2022/03/29 07:38:46;;;;;;;32.53;18.73;;;6.80;99.90;;;;;;12438192;28;20049;-81
2022/03/29 07:44:50;;;;;;;30.83;18.98;;;7.00;99.90;;;;;;12434237;28;20172;-80
2022/03/29 07:50:52;;;;;;;33.83;20.13;;;7.20;99.90;;;;;;12436034;28;20045;-80
2022/03/29 07:56:53;;;;;;;31.33;18.52;;;7.20;99.90;;;;;;12434883;28;20092;-80
2022/03/29 08:02:56;;;;;;;32.55;20.25;;;7.30;99.90;;;;;;12432923;28;20052;-82
2022/03/29 08:08:58;;;;;;;37.33;20.42;;;7.10;99.90;;;;;;12438760;28;20053;-79
2022/03/29 08:15:00;;;;;;;33.33;19.08;;;7.20;99.90;;;;;;12455156;28;20656;-81
2022/03/29 08:21:02;;;;;;;33.40;18.67;;;7.20;99.90;;;;;;12430629;28;20054;-80
2022/03/29 08:27:04;;;;;;;29.10;17.80;;;7.40;99.90;;;;;;12433260;28;20049;-81
2022/03/29 08:33:07;;;;;;;32.35;16.90;;;7.40;99.90;;;;;;12432779;28;20501;-80
2022/03/29 08:39:09;;;;;;;30.63;17.63;;;7.40;99.90;;;;;;12431713;28;20046;-79
2022/03/29 08:45:16;;;;;;;28.65;16.38;;;7.30;99.90;;;;;;12430229;28;20105;-80
2022/03/29 08:51:18;;;;;;;31.98;16.40;;;7.40;99.90;;;;;;12426411;28;20049;-82
2022/03/29 08:57:33;;;;;;;30.98;16.83;;;7.60;99.90;;;;;;12433093;28;20660;-81
2022/03/29 09:03:35;;;;;;;38.47;17.85;;;7.80;99.90;;;;;;12435977;28;20567;-81
2022/03/29 09:09:41;;;;;;;27.45;16.88;;;7.90;99.90;;;;;;12432727;28;20057;-80
2022/03/29 09:15:43;;;;;;;32.17;17.05;;;7.60;99.90;;;;;;12426806;28;20143;-80
2022/03/29 09:21:46;;;;;;;33.85;16.67;;;7.90;99.90;;;;;;12432151;28;20081;-80
2022/03/29 09:28:12;;;;;;;31.25;16.80;;;8.50;99.90;;;;;;12451931;28;20088;-81
2022/03/29 09:34:19;;;;;;;32.92;15.88;;;8.60;99.90;;;;;;12444530;28;20080;-81
2022/03/29 09:40:21;;;;;;;28.77;15.50;;;8.80;99.90;;;;;;12427970;28;20050;-80
2022/03/29 09:46:22;;;;;;;30.73;15.15;;;9.00;99.90;;;;;;12427143;28;20485;-82
2022/03/29 09:52:29;;;;;;;31.13;16.67;;;9.20;99.90;;;;;;12423647;28;20049;-81
2022/03/29 09:58:31;;;;;;;32.38;16.10;;;9.10;99.90;;;;;;12429207;28;20042;-82
2022/03/29 10:04:34;;;;;;;30.45;17.27;;;9.10;99.90;;;;;;12425438;28;20489;-81
2022/03/29 10:10:36;;;;;;;29.50;15.93;;;9.50;99.90;;;;;;12423087;28;20053;-82
2022/03/29 10:16:38;;;;;;;30.15;16.88;;;9.70;99.90;;;;;;12427825;28;20050;-81
2022/03/29 10:22:40;;;;;;;31.80;16.75;;;9.80;99.90;;;;;;12422362;28;20426;-82
2022/03/29 10:28:44;;;;;;;33.38;17.10;;;10.20;99.90;;;;;;12420668;28;20053;-82
2022/03/29 10:35:06;;;;;;;31.60;17.75;;;10.20;99.90;;;;;;12422141;28;20049;-80
2022/03/29 10:41:32;;;;;;;31.92;17.10;;;10.00;99.90;;;;;;12451316;28;20049;-82
2022/03/29 10:47:34;;;;;;;36.75;17.77;;;10.40;99.90;;;;;;12435208;28;20172;-82
2022/03/29 10:53:42;;;;;;;27.85;17.35;;;10.70;99.90;;;;;;12434928;28;20057;-82
2022/03/29 10:59:50;;;;;;;34.45;17.42;;;10.50;99.90;;;;;;12431569;28;20049;-80
2022/03/29 11:06:07;;;;;;;32.45;18.38;;;11.10;99.90;;;;;;12421505;28;20100;-81
2022/03/29 11:12:37;;;;;;;32.00;17.60;;;11.20;99.90;;;;;;12432161;28;20357;-82
2022/03/29 11:18:39;;;;;;;28.58;17.83;;;11.30;99.90;;;;;;12422514;28;20552;-81
2022/03/29 11:24:41;;;;;;;29.30;17.30;;;11.60;99.90;;;;;;12419049;28;20050;-83
2022/03/29 11:30:44;;;;;;;33.08;18.10;;;11.60;99.90;;;;;;12430128;28;20153;-82
2022/03/29 11:36:46;;;;;;;33.58;18.45;;;11.60;99.90;;;;;;12423897;28;20898;-81
2022/03/29 11:42:55;;;;;;;30.08;18.40;;;11.80;99.90;;;;;;12419229;28;20100;-83
2022/03/29 11:48:58;;;;;;;31.25;17.73;;;11.90;99.90;;;;;;12423799;28;20046;-82
2022/03/29 11:54:59;;;;;;;26.67;17.52;;;11.80;99.90;;;;;;12426932;28;20430;-83
2022/03/29 12:01:03;;;;;;;29.50;17.30;;;11.80;99.90;;;;;;12432678;28;20180;-83
2022/03/29 12:07:05;;;;;;;31.50;17.60;;;11.60;99.90;;;;;;12441724;28;20061;-82
2022/03/29 12:13:15;;;;;;;37.25;18.33;;;11.20;99.90;;;;;;12426589;28;20053;-81
2022/03/29 12:19:25;;;;;;;32.42;18.52;;;10.90;99.90;;;;;;12437522;28;20913;-81
2022/03/29 12:25:27;;;;;;;28.17;16.40;;;10.70;99.90;;;;;;12442173;28;20060;-81
2022/03/29 12:31:30;;;;;;;34.75;17.10;;;10.90;99.90;;;;;;12436018;28;20053;-82
2022/03/29 12:37:31;;;;;;;33.38;18.95;;;11.30;99.90;;;;;;12428292;28;20050;-81
2022/03/29 12:43:35;;;;;;;31.02;18.98;;;11.30;99.90;;;;;;12429659;28;20118;-81
2022/03/29 12:49:38;;;;;;;30.23;17.25;;;11.40;99.90;;;;;;12427246;28;20049;-80
2022/03/29 12:55:54;;;;;;;31.70;17.95;;;11.90;99.90;;;;;;12441811;28;20842;-83
2022/03/29 13:02:26;;;;;;;26.92;17.80;;;12.00;99.90;;;;;;12423363;28;20118;-83
2022/03/29 13:08:29;;;;;;;35.08;18.95;;;12.40;99.90;;;;;;12421390;28;20115;-83
2022/03/29 13:14:38;;;;;;;28.60;17.80;;;12.80;99.90;;;;;;12427662;28;20045;-80
2022/03/29 13:20:39;;;;;;;29.90;18.05;;;12.70;99.90;;;;;;12427920;28;20045;-83
2022/03/29 13:26:45;;;;;;;33.25;19.73;;;12.70;99.90;;;;;;12431183;28;20049;-83
2022/03/29 13:32:47;;;;;;;31.25;16.60;;;12.50;99.90;;;;;;12423534;28;20069;-83
2022/03/29 13:38:50;;;;;;;29.00;16.55;;;12.00;99.90;;;;;;12427805;28;20046;-81
2022/03/29 13:44:52;;;;;;;30.00;17.13;;;12.30;99.90;;;;;;12419952;28;20187;-80
2022/03/29 13:50:54;;;;;;;30.33;17.20;;;12.60;99.90;;;;;;12442397;28;20611;-81
2022/03/29 13:56:56;;;;;;;32.13;18.02;;;12.50;99.90;;;;;;12425675;28;20054;-83
2022/03/29 14:02:59;;;;;;;26.20;16.23;;;12.70;99.90;;;;;;12422621;28;20097;-81
2022/03/29 14:09:03;;;;;;;28.38;16.42;;;12.80;99.90;;;;;;12429684;28;20486;-82
2022/03/29 14:15:08;;;;;;;27.38;16.75;;;12.70;99.90;;;;;;12421186;28;20049;-81
2022/03/29 14:21:10;;;;;;;30.00;17.08;;;12.70;99.90;;;;;;12431741;28;20578;-81
2022/03/29 14:27:12;;;;;;;31.90;17.70;;;12.60;99.90;;;;;;12420846;28;20057;-83
2022/03/29 14:33:15;;;;;;;31.23;15.98;;;12.70;99.90;;;;;;12424737;28;20104;-83
2022/03/29 14:39:17;;;;;;;23.63;15.30;;;12.30;99.90;;;;;;12423074;28;20902;-80
2022/03/29 14:45:19;;;;;;;25.05;15.40;;;12.20;99.90;;;;;;12423040;28;20180;-83
2022/03/29 14:51:21;;;;;;;27.38;13.73;;;12.50;99.90;;;;;;12419961;28;20498;-83
2022/03/29 14:57:23;;;;;;;22.95;13.48;;;12.70;99.90;;;;;;12426161;28;20049;-81
2022/03/29 15:03:25;;;;;;;25.83;14.93;;;13.00;99.90;;;;;;12424205;28;20482;-80
2022/03/29 15:09:27;;;;;;;25.58;15.10;;;13.00;99.90;;;;;;12425588;28;20764;-81
2022/03/29 15:15:30;;;;;;;26.85;14.68;;;13.00;99.90;;;;;;12449320;28;20105;-83
2022/03/29 15:21:32;;;;;;;23.55;12.80;;;13.30;99.90;;;;;;12467929;28;20088;-83
2022/03/29 15:27:35;;;;;;;24.17;13.20;;;13.00;99.90;;;;;;12436214;28;20167;-82
2022/03/29 15:33:37;;;;;;;22.45;13.27;;;12.80;99.90;;;;;;12433249;28;20061;-81
2022/03/29 15:39:40;;;;;;;27.35;14.27;;;12.80;99.90;;;;;;12432286;28;20402;-83
2022/03/29 15:45:45;;;;;;;22.40;12.68;;;12.40;99.90;;;;;;12439179;28;20057;-83
2022/03/29 15:51:52;;;;;;;24.33;13.75;;;12.40;99.90;;;;;;12420304;28;20115;-83
2022/03/29 15:57:54;;;;;;;23.95;14.60;;;12.60;99.90;;;;;;12433812;28;20115;-83
2022/03/29 16:03:58;;;;;;;26.10;14.38;;;12.60;99.90;;;;;;12447995;28;20084;-84
2022/03/29 16:10:00;;;;;;;23.00;14.18;;;11.80;99.90;;;;;;12429178;28;20056;-80
2022/03/29 16:16:02;;;;;;;29.60;14.02;;;11.50;99.90;;;;;;12427949;28;20057;-81
2022/03/29 16:22:05;;;;;;;26.45;13.77;;;11.30;99.90;;;;;;12433542;28;20058;-83
2022/03/29 16:28:08;;;;;;;31.50;15.37;;;10.90;99.90;;;;;;12437816;28;20141;-81
2022/03/29 16:34:14;;;;;;;29.95;14.15;;;10.70;99.90;;;;;;12438792;28;20060;-81
2022/03/29 16:40:16;;;;;;;29.35;15.07;;;10.80;99.90;;;;;;12460689;28;20717;-84
2022/03/29 16:46:18;;;;;;;30.70;14.00;;;10.70;99.90;;;;;;12442531;28;20579;-84
2022/03/29 16:52:20;;;;;;;26.88;14.23;;;10.50;99.90;;;;;;12443559;28;20148;-82
2022/03/29 16:58:21;;;;;;;28.45;14.02;;;10.40;99.90;;;;;;12428661;28;20701;-84
2022/03/29 17:04:23;;;;;;;23.08;12.75;;;10.50;99.90;;;;;;12424325;28;20042;-81
2022/03/29 17:10:25;;;;;;;26.08;11.73;;;10.50;99.90;;;;;;12430251;28;20042;-81
2022/03/29 17:16:28;;;;;;;22.52;11.75;;;10.10;99.90;;;;;;12436189;28;20049;-81
2022/03/29 17:22:30;;;;;;;24.25;11.93;;;9.90;99.90;;;;;;12431156;28;20045;-83
2022/03/29 17:28:32;;;;;;;26.15;11.30;;;9.70;99.90;;;;;;12433592;28;20045;-82
2022/03/29 17:34:35;;;;;;;22.92;10.30;;;9.60;99.90;;;;;;12427259;28;20062;-83
2022/03/29 17:40:37;;;;;;;26.25;12.20;;;9.30;99.90;;;;;;12421188;28;20045;-83
2022/03/29 17:46:39;;;;;;;22.42;10.55;;;9.20;99.90;;;;;;12431555;28;20355;-83
2022/03/29 17:52:43;;;;;;;25.90;10.98;;;9.00;99.90;;;;;;12439675;28;20096;-83
2022/03/29 17:58:45;;;;;;;22.05;11.95;;;8.80;99.90;;;;;;12437289;28;20145;-82
2022/03/29 18:04:48;;;;;;;27.95;12.60;;;8.70;99.90;;;;;;12445884;28;20046;-83
2022/03/29 18:10:50;;;;;;;26.00;13.55;;;8.40;99.90;;;;;;12442305;28;20037;-82
2022/03/29 18:16:52;;;;;;;27.73;12.32;;;8.30;99.90;;;;;;12435444;28;20042;-81
2022/03/29 18:22:57;;;;;;;25.23;12.07;;;8.10;99.90;;;;;;12432722;28;20049;-80
2022/03/29 18:28:59;;;;;;;33.20;11.57;;;8.00;99.90;;;;;;12420122;28;20118;-82
2022/03/29 18:35:01;;;;;;;19.95;10.02;;;7.90;99.90;;;;;;12425425;28;20049;-82
2022/03/29 18:41:18;;;;;;;23.33;10.23;;;7.90;99.90;;;;;;12430389;28;20056;-81
2022/03/29 18:47:20;;;;;;;24.58;8.98;;;7.80;99.90;;;;;;12429397;28;20058;-82
2022/03/29 18:53:22;;;;;;;37.22;10.45;;;7.70;99.90;;;;;;12427018;28;20565;-81
2022/03/29 18:59:24;;;;;;;23.52;9.27;;;7.60;99.90;;;;;;12431378;28;20046;-82
2022/03/29 19:05:27;;;;;;;23.10;9.65;;;7.50;99.90;;;;;;12433252;28;20088;-81
2022/03/29 19:11:29;;;;;;;23.87;10.93;;;7.60;99.90;;;;;;12440383;28;20507;-79
2022/03/29 19:17:31;;;;;;;22.98;9.50;;;7.60;99.90;;;;;;12435257;28;20050;-80
2022/03/29 19:23:34;;;;;;;24.60;9.52;;;7.50;99.90;;;;;;12436002;28;20048;-82
2022/03/29 19:29:36;;;;;;;23.42;9.52;;;7.30;99.90;;;;;;12463793;28;20558;-82
2022/03/29 19:35:40;;;;;;;23.50;8.85;;;7.20;99.90;;;;;;12434241;28;20045;-82
2022/03/29 19:41:42;;;;;;;25.75;9.00;;;7.00;99.90;;;;;;12432150;28;20084;-80
2022/03/29 19:47:44;;;;;;;24.45;9.18;;;6.90;99.90;;;;;;12439917;28;20764;-80
2022/03/29 19:53:46;;;;;;;16.85;8.20;;;6.80;99.90;;;;;;12433677;28;20050;-81
2022/03/29 19:59:49;;;;;;;20.40;8.43;;;6.80;99.90;;;;;;12440487;28;20560;-81
2022/03/29 20:05:51;;;;;;;23.35;9.80;;;6.80;99.90;;;;;;12432403;28;20590;-80
2022/03/29 20:11:53;;;;;;;20.48;8.68;;;6.50;99.90;;;;;;12429522;28;20049;-82
2022/03/29 20:17:55;;;;;;;18.33;8.20;;;6.20;99.90;;;;;;12444046;28;20061;-82
2022/03/29 20:23:57;;;;;;;19.35;8.77;;;6.10;99.90;;;;;;12438775;28;20049;-81
2022/03/29 20:30:01;;;;;;;18.63;8.73;;;6.10;99.90;;;;;;12437934;28;20053;-81
2022/03/29 20:36:04;;;;;;;25.80;9.32;;;6.10;99.90;;;;;;12436614;28;20045;-82
2022/03/29 20:42:06;;;;;;;22.20;9.25;;;5.90;99.90;;;;;;12442937;28;20049;-82
2022/03/29 20:48:07;;;;;;;19.25;8.52;;;5.70;99.90;;;;;;12452058;28;20054;-82
2022/03/29 20:54:10;;;;;;;20.83;9.88;;;5.70;99.90;;;;;;12432059;28;20575;-80
2022/03/29 21:00:13;;;;;;;23.92;10.65;;;5.80;99.90;;;;;;12435226;28;20059;-82
2022/03/29 21:06:15;;;;;;;23.88;10.63;;;5.80;99.90;;;;;;12432968;28;20104;-80
2022/03/29 21:12:17;;;;;;;19.60;10.25;;;5.90;99.90;;;;;;12428831;28;20122;-80
2022/03/29 21:18:20;;;;;;;23.88;10.73;;;5.80;99.90;;;;;;12430920;28;20409;-81
2022/03/29 21:24:22;;;;;;;21.85;9.57;;;5.50;99.90;;;;;;12430625;28;20041;-81
2022/03/29 21:30:24;;;;;;;22.17;9.32;;;5.50;99.90;;;;;;12432216;28;20103;-80
2022/03/29 21:36:26;;;;;;;19.27;9.63;;;5.60;99.90;;;;;;12434355;28;20111;-82
2022/03/29 21:42:28;;;;;;;19.42;9.10;;;5.50;99.90;;;;;;12432283;28;20065;-81
2022/03/29 21:48:30;;;;;;;24.00;10.18;;;5.50;99.90;;;;;;12434718;28;20100;-80
2022/03/29 21:54:33;;;;;;;19.90;8.20;;;5.40;99.90;;;;;;12441515;28;20131;-80
2022/03/29 22:00:38;;;;;;;20.20;8.73;;;5.00;99.90;;;;;;12460003;28;20107;-82
2022/03/29 22:06:40;;;;;;;20.20;7.85;;;4.80;99.90;;;;;;12441711;28;20052;-82
2022/03/29 22:12:43;;;;;;;19.98;7.82;;;4.80;99.90;;;;;;12432737;28;20082;-82
2022/03/29 22:18:46;;;;;;;17.80;7.65;;;5.00;99.90;;;;;;12435669;28;20113;-80
2022/03/29 22:24:48;;;;;;;18.63;7.25;;;4.90;99.90;;;;;;12422729;28;20045;-80
2022/03/29 22:30:51;;;;;;;21.95;7.80;;;4.80;99.90;;;;;;12430895;28;20041;-80
2022/03/29 22:36:53;;;;;;;16.33;7.03;;;5.00;99.90;;;;;;12425627;28;20053;-81
2022/03/29 22:42:55;;;;;;;16.70;6.93;;;4.80;99.90;;;;;;12425009;28;20092;-79
2022/03/29 22:48:57;;;;;;;13.30;6.10;;;4.80;99.90;;;;;;12433777;28;20046;-80
2022/03/29 22:54:58;;;;;;;14.50;6.43;;;4.90;99.90;;;;;;12411200;28;20452;-80
2022/03/29 23:01:00;;;;;;;13.52;5.45;;;5.10;99.90;;;;;;12422418;28;20057;-81
2022/03/29 23:07:02;;;;;;;15.43;5.80;;;5.10;99.90;;;;;;12428829;28;20053;-80
2022/03/29 23:13:04;;;;;;;14.90;5.28;;;5.00;99.90;;;;;;12430164;28;20053;-79
2022/03/29 23:19:06;;;;;;;15.85;5.43;;;5.00;99.90;;;;;;12434578;28;20061;-80
2022/03/29 23:25:09;;;;;;;14.68;6.05;;;5.00;99.90;;;;;;12437650;28;20050;-80
2022/03/29 23:31:11;;;;;;;15.32;7.32;;;4.90;99.90;;;;;;12450391;28;20045;-80
2022/03/29 23:37:13;;;;;;;16.13;5.57;;;4.70;99.90;;;;;;12429400;28;20051;-80
2022/03/29 23:43:14;;;;;;;19.20;6.68;;;4.40;99.90;;;;;;12420395;28;20521;-79
2022/03/29 23:49:17;;;;;;;17.08;6.40;;;4.30;99.90;;;;;;12433012;28;20144;-81
2022/03/29 23:55:19;;;;;;;20.80;6.43;;;4.40;99.90;;;;;;12438446;28;20049;-80
